Time;durP1;ratioP1;P1;durP2;ratioP2;P2;SDS_P1;SDS_P2;PMS_P1;PMS_P2;Temp;Humidity;BMP_temperature;BMP_pressure;BME280_temperature;BME280_humidity;BME280_pressure;Samples;Min_cycle;Max_cycle;Signal;HPM_P1;HPM_P2
2022/10/19 00:01:14;;;;;;;13.00;2.95;;;;;;;11.42;94.31;101832.84;4977708;28;20093;-82
2022/10/19 00:03:42;;;;;;;6.88;2.22;;;;;;;11.41;94.68;101828.50;4964965;28;20039;-82
2022/10/19 00:06:24;;;;;;;9.38;2.60;;;;;;;11.38;94.24;101825.97;4951665;28;20125;-82
2022/10/19 00:08:55;;;;;;;6.88;1.95;;;;;;;11.38;94.26;101831.25;4966975;28;20085;-82
2022/10/19 00:11:23;;;;;;;13.93;2.30;;;;;;;11.35;93.64;101829.63;4969428;28;20105;-82
2022/10/19 00:13:51;;;;;;;10.52;3.50;;;;;;;11.36;94.03;101833.97;4960562;28;20051;-81
2022/10/19 00:16:19;;;;;;;8.88;2.33;;;;;;;11.40;93.87;101829.44;4948475;28;20082;-81
2022/10/19 00:18:46;;;;;;;12.63;2.10;;;;;;;11.37;94.14;101824.28;4935714;28;22239;-80
2022/10/19 00:21:16;;;;;;;10.00;2.95;;;;;;;11.38;94.09;101821.56;4964643;28;20073;-80
2022/10/19 00:23:44;;;;;;;9.77;2.30;;;;;;;11.39;94.43;101827.69;4978429;28;20054;-82
2022/10/19 00:26:12;;;;;;;8.90;1.85;;;;;;;11.38;94.46;101828.63;4963115;28;20507;-81
2022/10/19 00:28:41;;;;;;;8.02;2.25;;;;;;;11.41;94.20;101832.00;4959635;28;20086;-82
2022/10/19 00:31:11;;;;;;;6.07;2.00;;;;;;;11.38;93.51;101828.63;4966926;28;22207;-82
2022/10/19 00:33:41;;;;;;;8.68;2.22;;;;;;;11.39;93.24;101832.97;4925111;28;20055;-82
2022/10/19 00:36:21;;;;;;;10.68;2.10;;;;;;;11.42;92.96;101830.19;4933833;29;20138;-81
2022/10/19 00:38:49;;;;;;;10.30;2.28;;;;;;;11.45;92.10;101829.22;4961543;28;20046;-82
2022/10/19 00:41:18;;;;;;;8.27;1.80;;;;;;;11.40;91.27;101835.56;4943462;29;20192;-82
2022/10/19 00:44:06;;;;;;;6.53;1.98;;;;;;;11.41;91.73;101828.50;4963158;28;20062;-81
2022/10/19 00:46:37;;;;;;;7.95;1.90;;;;;;;11.42;91.16;101830.19;4955913;28;20050;-82
2022/10/19 00:49:13;;;;;;;8.30;2.30;;;;;;;11.42;91.14;101832.84;4967080;28;20050;-81
2022/10/19 00:51:44;;;;;;;7.20;2.00;;;;;;;11.44;90.95;101836.28;4974090;28;20050;-81
2022/10/19 00:54:11;;;;;;;10.57;1.92;;;;;;;11.48;90.17;101831.72;4949938;28;20082;-83
2022/10/19 00:56:41;;;;;;;6.07;1.90;;;;;;;11.46;89.78;101831.78;4941787;28;20073;-82
2022/10/19 00:59:09;;;;;;;13.32;2.38;;;;;;;11.51;89.65;101839.50;4953444;28;20046;-81
2022/10/19 01:01:37;;;;;;;6.40;1.95;;;;;;;11.51;89.79;101843.00;4947634;28;20118;-82
2022/10/19 01:04:05;;;;;;;9.63;1.95;;;;;;;11.53;90.16;101838.53;4965999;28;20130;-82
2022/10/19 01:06:33;;;;;;;8.77;1.85;;;;;;;11.50;89.05;101838.66;4971516;28;20509;-83
2022/10/19 01:09:26;;;;;;;7.85;2.28;;;;;;;11.49;88.84;101831.66;4942173;28;20031;-83
2022/10/19 01:12:00;;;;;;;7.70;1.95;;;;;;;11.48;88.84;101823.81;4954842;28;20049;-83
2022/10/19 01:14:36;;;;;;;7.45;2.40;;;;;;;11.48;87.53;101824.66;4973378;28;20038;-83
2022/10/19 01:17:37;;;;;;;13.95;1.75;;;;;;;11.48;87.65;101814.09;4964479;28;20043;-81
2022/10/19 01:20:24;;;;;;;11.23;2.05;;;;;;;11.49;88.20;101818.47;4978885;28;20046;-83
2022/10/19 01:23:23;;;;;;;11.25;1.80;;;;;;;11.47;88.03;101809.75;4978131;28;20070;-82
2022/10/19 01:26:25;;;;;;;6.10;1.80;;;;;;;11.50;88.04;101807.00;4983241;28;20051;-81
2022/10/19 01:29:07;;;;;;;6.90;1.35;;;;;;;11.53;87.61;101798.97;4959524;28;20058;-82
2022/10/19 01:32:13;;;;;;;22.38;1.83;;;;;;;11.54;86.70;101808.59;4964185;28;20129;-83
2022/10/19 01:34:51;;;;;;;4.15;1.10;;;;;;;11.59;87.14;101801.31;4977908;28;20070;-82
2022/10/19 01:37:24;;;;;;;7.97;2.08;;;;;;;11.55;84.77;101805.00;4951870;29;20498;-83
2022/10/19 01:39:56;;;;;;;9.05;1.27;;;;;;;11.51;84.45;101795.53;4980475;28;20062;-84
2022/10/19 01:42:31;;;;;;;12.38;2.03;;;;;;;11.50;82.87;101798.25;4951568;28;20061;-83
2022/10/19 01:45:08;;;;;;;10.75;1.63;;;;;;;11.50;83.00;101806.16;4964032;28;20161;-82
2022/10/19 01:48:03;;;;;;;14.85;1.80;;;;;;;11.53;82.24;101803.38;4973898;28;20098;-82
2022/10/19 01:50:36;;;;;;;4.53;1.20;;;;;;;11.52;82.25;101799.88;4949795;28;20042;-82
2022/10/19 01:53:06;;;;;;;8.98;1.50;;;;;;;11.51;82.13;101805.22;4936379;28;20142;-82
2022/10/19 01:55:33;;;;;;;4.55;1.10;;;;;;;11.53;82.65;101795.47;4948581;28;20035;-83
2022/10/19 01:58:04;;;;;;;4.95;1.27;;;;;;;11.53;82.58;101806.03;4960270;28;20054;-81
2022/10/19 02:00:38;;;;;;;6.25;1.27;;;;;;;11.51;82.89;101799.94;4962485;28;20047;-82
2022/10/19 02:03:06;;;;;;;4.75;1.02;;;;;;;11.54;83.42;101800.66;4960455;28;20046;-83
2022/10/19 02:05:35;;;;;;;7.72;1.70;;;;;;;11.53;83.99;101792.84;4952387;28;20030;-82
2022/10/19 02:08:10;;;;;;;7.28;1.40;;;;;;;11.52;84.02;101796.38;4971322;28;20050;-81
2022/10/19 02:10:39;;;;;;;6.05;1.17;;;;;;;11.52;84.75;101797.22;4975825;28;20073;-82
2022/10/19 02:13:07;;;;;;;7.05;1.52;;;;;;;11.51;84.97;101790.25;4950412;28;20121;-82
2022/10/19 02:15:36;;;;;;;13.82;2.55;;;;;;;11.56;84.86;101785.63;4955378;28;20042;-82
2022/10/19 02:18:05;;;;;;;13.90;2.50;;;;;;;11.59;85.27;101784.63;4944627;28;20138;-81
2022/10/19 02:20:35;;;;;;;10.00;1.65;;;;;;;11.54;85.88;101782.22;4961914;28;20043;-83
2022/10/19 02:23:04;;;;;;;8.45;1.67;;;;;;;11.54;85.92;101789.28;4941993;28;20483;-82
2022/10/19 02:25:32;;;;;;;6.70;1.83;;;;;;;11.51;86.28;101784.97;4970395;28;20061;-82
2022/10/19 02:28:01;;;;;;;7.10;1.80;;;;;;;11.51;86.46;101787.59;4940471;28;20557;-80
2022/10/19 02:30:29;;;;;;;8.73;1.95;;;;;;;11.55;86.41;101786.56;4952410;28;20043;-82
2022/10/19 02:32:56;;;;;;;8.90;1.65;;;;;;;11.48;86.71;101798.28;4958460;28;20118;-81
2022/10/19 02:35:24;;;;;;;11.20;1.50;;;;;;;11.47;87.15;101796.56;4967954;28;20138;-82
2022/10/19 02:38:04;;;;;;;9.20;1.52;;;;;;;11.44;88.00;101790.56;4947354;28;20093;-80
2022/10/19 02:40:36;;;;;;;11.95;1.85;;;;;;;11.45;87.98;101782.63;4964805;28;20058;-82
2022/10/19 02:43:09;;;;;;;3.88;1.20;;;;;;;11.43;87.75;101789.72;4964119;28;20458;-81
2022/10/19 02:45:45;;;;;;;9.30;1.85;;;;;;;11.40;88.08;101793.38;4965881;28;20059;-82
2022/10/19 02:48:18;;;;;;;10.02;1.80;;;;;;;11.37;88.92;101790.00;4953114;28;20046;-82
2022/10/19 02:50:47;;;;;;;8.63;1.60;;;;;;;11.38;88.58;101794.34;4953730;28;20530;-81
2022/10/19 02:53:15;;;;;;;15.48;1.40;;;;;;;11.35;88.86;101800.63;4949846;28;20052;-82
2022/10/19 02:55:43;;;;;;;9.63;1.63;;;;;;;11.31;88.96;101790.28;4948571;28;20573;-83
2022/10/19 02:58:11;;;;;;;9.68;1.70;;;;;;;11.37;88.70;101793.50;4959044;28;20051;-82
2022/10/19 03:00:38;;;;;;;8.48;1.92;;;;;;;11.42;88.03;101795.94;4963925;28;20057;-82
2022/10/19 03:03:06;;;;;;;11.15;1.83;;;;;;;11.35;88.54;101790.09;4945752;28;20071;-83
2022/10/19 03:05:34;;;;;;;7.93;2.50;;;;;;;11.32;88.94;101792.00;4948851;28;20046;-81
2022/10/19 03:08:01;;;;;;;7.88;1.52;;;;;;;11.36;88.57;101791.78;4970356;28;20114;-82
2022/10/19 03:10:29;;;;;;;9.15;1.70;;;;;;;11.34;89.05;101790.13;4958652;28;20043;-83
2022/10/19 03:12:58;;;;;;;7.10;1.60;;;;;;;11.29;89.44;101800.88;4972653;28;20058;-82
2022/10/19 03:15:28;;;;;;;10.25;1.48;;;;;;;11.27;89.64;101794.81;4973157;28;20046;-84
2022/10/19 03:17:56;;;;;;;5.03;1.45;;;;;;;11.30;90.03;101799.09;4963005;28;20058;-82
2022/10/19 03:20:24;;;;;;;6.80;1.85;;;;;;;11.26;90.07;101802.81;4954805;28;20047;-82
2022/10/19 03:22:51;;;;;;;6.45;1.50;;;;;;;11.23;90.20;101805.56;4969256;28;20503;-81
2022/10/19 03:25:25;;;;;;;8.57;1.52;;;;;;;11.32;90.10;101810.44;4959212;29;20094;-82
2022/10/19 03:27:52;;;;;;;8.35;1.58;;;;;;;11.28;89.88;101801.81;4975568;28;20050;-82
2022/10/19 03:30:19;;;;;;;5.72;1.60;;;;;;;11.32;90.13;101808.66;4981225;28;20042;-82
2022/10/19 03:32:47;;;;;;;6.10;1.27;;;;;;;11.24;90.54;101804.63;4963280;28;20062;-82
2022/10/19 03:35:14;;;;;;;9.10;1.42;;;;;;;11.18;91.19;101805.75;4982628;28;20102;-82
2022/10/19 03:37:42;;;;;;;5.70;1.30;;;;;;;11.22;91.24;101817.03;4948083;28;20402;-82
2022/10/19 03:40:10;;;;;;;8.40;1.20;;;;;;;11.21;90.71;101816.16;4966196;28;20098;-81
2022/10/19 03:42:37;;;;;;;3.88;0.90;;;;;;;11.29;90.11;101818.47;4957731;28;20054;-80
2022/10/19 03:45:05;;;;;;;1.92;0.80;;;;;;;11.25;90.52;101814.25;4975084;28;20045;-83
2022/10/19 03:47:33;;;;;;;6.60;1.33;;;;;;;11.25;90.14;101819.53;4949642;28;20051;-81
2022/10/19 03:50:01;;;;;;;3.42;0.90;;;;;;;11.23;89.78;101819.59;4944937;28;20077;-80
2022/10/19 03:52:29;;;;;;;3.38;0.95;;;;;;;11.19;89.13;101823.28;4958070;28;20031;-80
2022/10/19 03:54:56;;;;;;;5.35;0.90;;;;;;;11.17;88.97;101814.59;4979257;28;20054;-81
2022/10/19 03:57:24;;;;;;;3.83;1.30;;;;;;;11.18;88.58;101823.34;4937379;28;20057;-81
2022/10/19 03:59:51;;;;;;;4.53;0.95;;;;;;;11.22;89.32;101820.53;4965495;28;20031;-81
2022/10/19 04:02:21;;;;;;;5.68;1.55;;;;;;;11.24;88.40;101823.09;4962252;28;20530;-82
2022/10/19 04:04:49;;;;;;;6.38;1.30;;;;;;;11.21;88.35;101831.13;4964456;28;20043;-80
2022/10/19 04:07:16;;;;;;;5.13;0.93;;;;;;;11.18;88.35;101834.75;4979759;28;20101;-82
2022/10/19 04:09:44;;;;;;;5.78;1.25;;;;;;;11.22;88.50;101832.84;4945856;28;20055;-83
2022/10/19 04:12:12;;;;;;;4.03;1.00;;;;;;;11.23;88.32;101830.13;4975525;28;20094;-81
2022/10/19 04:14:39;;;;;;;5.28;1.08;;;;;;;11.19;89.10;101832.97;4947862;28;20039;-82
2022/10/19 04:17:24;;;;;;;5.82;1.65;;;;;;;11.11;89.82;101825.38;4948604;28;20413;-82
2022/10/19 04:19:51;;;;;;;5.90;1.00;;;;;;;11.04;90.24;101835.34;4962317;28;20122;-81
2022/10/19 04:22:19;;;;;;;3.92;1.50;;;;;;;11.20;89.02;101840.81;4952137;29;20051;-81
2022/10/19 04:24:46;;;;;;;4.47;1.20;;;;;;;11.16;89.70;101841.84;4962887;28;20047;-81
2022/10/19 04:27:14;;;;;;;6.82;1.35;;;;;;;11.14;89.38;101844.56;4960413;28;20066;-82
2022/10/19 04:29:41;;;;;;;4.55;1.20;;;;;;;11.06;89.56;101838.75;4957397;28;20050;-82
2022/10/19 04:32:09;;;;;;;6.60;1.17;;;;;;;11.09;89.52;101845.69;4969971;28;20054;-81
2022/10/19 04:34:37;;;;;;;7.85;1.52;;;;;;;11.10;89.50;101848.25;4982938;28;20102;-83
2022/10/19 04:37:06;;;;;;;5.72;1.25;;;;;;;11.04;89.93;101851.13;4957625;29;20043;-82
2022/10/19 04:39:38;;;;;;;7.63;1.52;;;;;;;10.99;90.33;101847.00;4947981;29;20039;-84
2022/10/19 04:42:05;;;;;;;5.38;1.25;;;;;;;10.95;90.70;101846.25;4963015;28;20042;-82
2022/10/19 04:44:33;;;;;;;7.13;1.10;;;;;;;11.00;90.68;101853.97;4963985;28;20054;-85
2022/10/19 04:47:00;;;;;;;6.65;1.23;;;;;;;11.10;89.86;101848.25;4954770;28;20146;-82
2022/10/19 04:49:28;;;;;;;8.43;0.90;;;;;;;11.09;90.15;101854.44;4965434;28;20046;-84
2022/10/19 04:51:56;;;;;;;7.68;1.30;;;;;;;11.04;90.61;101861.69;4933134;28;20046;-83
2022/10/19 04:54:23;;;;;;;7.90;1.27;;;;;;;11.04;90.61;101855.56;4938842;28;20045;-84
2022/10/19 04:56:52;;;;;;;9.27;1.20;;;;;;;11.04;90.59;101864.31;4958444;28;20059;-84
2022/10/19 04:59:20;;;;;;;3.95;1.13;;;;;;;11.14;90.03;101860.38;4954358;28;20050;-83
2022/10/19 05:01:48;;;;;;;4.93;1.17;;;;;;;11.15;89.98;101861.22;4953005;28;20065;-82
2022/10/19 05:04:15;;;;;;;6.60;1.20;;;;;;;11.13;89.91;101866.56;4954069;28;20046;-83
2022/10/19 05:06:43;;;;;;;5.40;1.20;;;;;;;11.07;90.13;101863.31;4976581;28;20027;-81
2022/10/19 05:09:12;;;;;;;3.85;0.85;;;;;;;11.10;90.36;101871.09;4977482;28;20051;-80
2022/10/19 05:11:39;;;;;;;5.10;1.25;;;;;;;11.10;90.06;101873.75;4974666;28;20047;-81
2022/10/19 05:14:07;;;;;;;4.72;1.10;;;;;;;11.15;89.64;101877.91;4971337;28;20043;-83
2022/10/19 05:16:35;;;;;;;4.28;0.90;;;;;;;11.17;89.78;101877.84;4947966;28;20059;-79
2022/10/19 05:19:02;;;;;;;4.07;1.08;;;;;;;11.23;88.77;101874.09;4948247;28;20062;-80
2022/10/19 05:21:30;;;;;;;3.90;1.00;;;;;;;11.18;88.89;101890.09;4961172;28;20055;-82
2022/10/19 05:23:58;;;;;;;4.55;1.35;;;;;;;11.10;89.44;101884.28;4942447;28;20326;-83
2022/10/19 05:26:26;;;;;;;7.32;1.70;;;;;;;11.05;90.48;101883.63;4950794;28;20035;-80
2022/10/19 05:29:00;;;;;;;4.43;0.82;;;;;;;11.00;92.23;101875.03;4977880;28;20046;-82
2022/10/19 05:31:30;;;;;;;5.80;1.00;;;;;;;10.94;93.44;101876.13;4972240;28;20039;-84
2022/10/19 05:33:58;;;;;;;6.07;1.08;;;;;;;10.77;95.33;101881.25;4961909;28;20047;-83
2022/10/19 05:36:33;;;;;;;5.68;1.50;;;;;;;10.68;96.89;101882.47;4960551;28;20054;-81
2022/10/19 05:39:13;;;;;;;5.55;1.40;;;;;;;10.59;97.98;101877.56;4929346;28;20057;-82
2022/10/19 05:41:45;;;;;;;5.05;1.10;;;;;;;10.62;97.72;101887.94;4952646;28;20054;-81
2022/10/19 05:44:21;;;;;;;9.15;1.55;;;;;;;10.72;96.26;101883.19;4946303;28;20054;-81
2022/10/19 05:46:49;;;;;;;;;;;;;;;10.72;95.88;101888.47;4968124;28;20039;-80
2022/10/19 05:49:19;;;;;;;4.38;1.05;;;;;;;10.70;96.13;101888.50;4938024;28;19930;-82
2022/10/19 05:51:47;;;;;;;8.40;1.38;;;;;;;10.67;96.83;101886.00;4952585;28;20043;-83
2022/10/19 05:54:17;;;;;;;5.85;1.50;;;;;;;10.69;96.59;101901.75;4936068;28;20097;-84
2022/10/19 05:56:47;;;;;;;8.32;1.27;;;;;;;10.75;96.14;101894.44;4949968;28;20055;-84
2022/10/19 05:59:17;;;;;;;5.50;1.00;;;;;;;10.76;95.92;101887.41;4967605;28;20115;-83
2022/10/19 06:01:45;;;;;;;11.35;1.75;;;;;;;10.77;96.18;101887.38;4972831;23;20058;-64
2022/10/19 06:04:13;;;;;;;7.03;1.30;;;;;;;10.70;96.73;101896.41;4980445;28;20062;-61
2022/10/19 06:06:42;;;;;;;9.93;2.25;;;;;;;10.67;96.80;101893.03;4967881;28;20530;-63
2022/10/19 06:09:09;;;;;;;9.18;1.23;;;;;;;10.68;97.00;101900.03;4979523;28;20035;-64
2022/10/19 06:11:38;;;;;;;3.78;1.08;;;;;;;10.68;97.19;101898.25;4991112;28;20069;-61
2022/10/19 06:14:10;;;;;;;9.30;1.30;;;;;;;10.74;96.95;101897.16;5013528;22;20465;-61
2022/10/19 06:16:37;;;;;;;4.78;1.02;;;;;;;10.81;96.09;101904.78;5003077;28;20154;-61
2022/10/19 06:19:05;;;;;;;6.25;1.02;;;;;;;10.86;95.49;101901.94;5002622;28;20057;-62
2022/10/19 06:21:32;;;;;;;10.15;1.30;;;;;;;10.82;96.07;101903.84;4985373;28;20239;-62
2022/10/19 06:24:02;;;;;;;6.00;0.93;;;;;;;10.79;96.26;101908.38;5008038;28;20050;-62
2022/10/19 06:26:31;;;;;;;7.85;1.75;;;;;;;10.86;95.79;101912.50;5008507;28;20569;-62
2022/10/19 06:28:59;;;;;;;6.55;1.20;;;;;;;10.96;95.19;101905.94;5007624;28;20058;-62
2022/10/19 06:31:32;;;;;;;8.02;1.60;;;;;;;10.94;95.14;101910.38;5000884;28;20099;-61
2022/10/19 06:34:00;;;;;;;5.88;1.33;;;;;;;10.96;94.76;101905.06;5010754;28;20046;-61
2022/10/19 06:36:30;;;;;;;4.72;1.05;;;;;;;10.97;94.77;101912.06;5003522;28;20039;-61
2022/10/19 06:39:00;;;;;;;7.43;1.10;;;;;;;10.94;94.78;101913.00;5006315;28;20145;-61
2022/10/19 06:41:30;;;;;;;7.18;1.48;;;;;;;11.01;94.49;101914.50;5008178;28;21132;-61
2022/10/19 06:43:57;;;;;;;6.25;1.38;;;;;;;11.02;94.17;101903.03;5009429;28;20108;-61
2022/10/19 06:46:25;;;;;;;6.57;1.20;;;;;;;10.99;95.28;101912.88;5005210;28;20070;-61
2022/10/19 06:48:54;;;;;;;7.05;1.30;;;;;;;10.98;95.27;101916.38;5000642;28;20058;-61
2022/10/19 06:51:23;;;;;;;5.78;1.48;;;;;;;10.95;95.59;101914.75;4999467;28;20104;-61
2022/10/19 06:53:50;;;;;;;5.40;1.27;;;;;;;10.99;95.47;101920.78;5004516;28;20060;-61
2022/10/19 06:56:24;;;;;;;7.72;2.20;;;;;;;11.02;95.35;101913.56;4998837;28;20042;-61
2022/10/19 06:58:51;;;;;;;12.88;2.58;;;;;;;11.17;94.28;101920.03;5006519;28;20061;-60
2022/10/19 07:01:19;;;;;;;5.28;0.80;;;;;;;11.00;95.05;101925.13;5006089;28;20585;-60
2022/10/19 07:03:46;;;;;;;7.63;1.17;;;;;;;10.96;95.56;101920.88;5010950;28;20320;-60
2022/10/19 07:06:13;;;;;;;9.73;1.20;;;;;;;10.90;96.05;101930.75;5005825;28;20064;-61
2022/10/19 07:08:41;;;;;;;5.00;1.15;;;;;;;10.95;95.74;101930.56;5007341;28;20050;-61
2022/10/19 07:11:10;;;;;;;4.47;1.13;;;;;;;11.02;95.91;101928.53;4989202;28;20053;-59
2022/10/19 07:13:38;;;;;;;7.95;1.13;;;;;;;10.97;96.37;101935.75;5003423;28;20058;-61
2022/10/19 07:16:10;;;;;;;7.97;1.30;;;;;;;10.91;97.17;101942.13;5013337;28;20056;-60
2022/10/19 07:18:45;;;;;;;9.25;1.20;;;;;;;10.87;97.28;101937.91;5004595;28;20050;-61
2022/10/19 07:21:15;;;;;;;3.45;0.88;;;;;;;10.92;97.19;101940.38;5010296;28;20140;-61
2022/10/19 07:23:46;;;;;;;7.15;2.45;;;;;;;11.04;96.51;101945.16;5002923;28;20884;-61
2022/10/19 07:26:20;;;;;;;8.45;1.27;;;;;;;11.02;96.28;101952.25;5008513;28;20522;-59
2022/10/19 07:28:48;;;;;;;8.45;1.55;;;;;;;11.00;96.38;101949.69;5008335;28;20526;-61
2022/10/19 07:31:19;;;;;;;8.88;1.20;;;;;;;11.01;96.73;101956.66;5007526;28;20057;-60
2022/10/19 07:33:50;;;;;;;7.55;1.20;;;;;;;11.10;96.36;101958.94;5011705;28;20056;-60
2022/10/19 07:36:17;;;;;;;12.30;1.13;;;;;;;11.09;96.67;101965.13;5007834;28;20407;-61
2022/10/19 07:38:44;;;;;;;5.68;1.20;;;;;;;11.10;96.92;101960.72;5006957;28;20054;-61
2022/10/19 07:41:14;;;;;;;6.32;1.40;;;;;;;11.14;96.80;101964.94;5003962;28;20072;-61
2022/10/19 07:43:42;;;;;;;5.80;1.13;;;;;;;11.11;96.53;101963.28;5005302;28;20051;-59
2022/10/19 07:46:17;;;;;;;7.82;1.38;;;;;;;11.21;95.92;101961.13;5005156;28;20057;-61
2022/10/19 07:48:45;;;;;;;6.40;1.30;;;;;;;11.29;95.54;101972.22;5007634;28;20132;-61
2022/10/19 07:51:14;;;;;;;4.38;1.30;;;;;;;11.25;95.27;101969.78;5006123;28;20049;-61
2022/10/19 07:53:41;;;;;;;6.57;1.73;;;;;;;11.22;95.73;101964.66;5007098;28;20144;-61
2022/10/19 07:56:16;;;;;;;8.70;1.58;;;;;;;11.27;95.62;101968.81;4992292;28;20577;-61
2022/10/19 07:58:44;;;;;;;7.47;1.27;;;;;;;11.38;95.33;101969.22;4989794;28;20060;-60
2022/10/19 08:01:14;;;;;;;8.63;1.00;;;;;;;11.47;94.73;101967.97;5005364;28;20538;-60
2022/10/19 08:03:41;;;;;;;7.45;1.52;;;;;;;11.50;94.38;101969.66;5007406;28;20104;-61
2022/10/19 08:06:28;;;;;;;8.20;1.35;;;;;;;11.62;94.10;101966.50;5007506;28;20046;-61
2022/10/19 08:08:56;;;;;;;7.78;2.97;;;;;;;11.66;93.41;101976.88;5006944;28;20153;-58
2022/10/19 08:11:28;;;;;;;8.43;1.63;;;;;;;11.65;93.57;101980.41;5010171;28;20125;-61
2022/10/19 08:13:59;;;;;;;7.05;1.58;;;;;;;11.58;93.02;101983.38;5007234;28;20141;-61
2022/10/19 08:16:39;;;;;;;7.47;1.20;;;;;;;11.54;93.38;101979.16;4994634;28;20141;-61
2022/10/19 08:19:11;;;;;;;5.82;1.30;;;;;;;11.45;94.95;101987.44;5008999;28;20553;-61
2022/10/19 08:21:40;;;;;;;3.90;1.10;;;;;;;11.39;96.95;101988.53;5005854;28;20056;-60
2022/10/19 08:24:07;;;;;;;8.50;1.63;;;;;;;11.37;98.14;101988.59;5007325;28;20050;-61
2022/10/19 08:26:37;;;;;;;8.60;2.22;;;;;;;11.43;98.21;101984.84;5005040;28;20046;-61
2022/10/19 08:29:07;;;;;;;6.47;1.63;;;;;;;11.53;97.59;101986.22;5003942;28;20137;-60
2022/10/19 08:31:34;;;;;;;9.20;1.85;;;;;;;11.63;97.38;101997.22;5008207;28;20173;-61
2022/10/19 08:34:01;;;;;;;7.05;1.73;;;;;;;11.68;96.36;101992.63;5003459;28;20168;-61
2022/10/19 08:36:34;;;;;;;5.68;1.40;;;;;;;11.73;96.76;101990.66;4993454;28;20054;-60
2022/10/19 08:39:03;;;;;;;7.97;1.20;;;;;;;11.78;95.62;101991.31;5006536;28;20058;-59
2022/10/19 08:41:58;;;;;;;7.13;1.40;;;;;;;11.91;94.85;101997.81;5008351;28;20137;-59
2022/10/19 08:44:53;;;;;;;7.55;1.80;;;;;;;12.03;93.88;101998.22;4989650;28;20052;-59
2022/10/19 08:47:25;;;;;;;11.00;1.55;;;;;;;12.13;93.11;102003.03;5005536;28;20046;-59
2022/10/19 08:49:52;;;;;;;6.47;1.45;;;;;;;12.24;92.42;101997.25;4989944;28;20140;-59
2022/10/19 08:52:29;;;;;;;9.55;1.63;;;;;;;12.26;91.60;101997.22;5005622;28;20052;-60
2022/10/19 08:55:10;;;;;;;6.88;1.90;;;;;;;12.45;88.84;101997.25;4971449;28;20056;-60
2022/10/19 08:58:12;;;;;;;5.55;1.70;;;;;;;12.37;89.56;101994.94;4989725;28;20100;-61
2022/10/19 09:00:44;;;;;;;5.35;1.58;;;;;;;12.40;89.22;101995.69;5008264;28;20351;-60
2022/10/19 09:03:44;;;;;;;4.38;1.08;;;;;;;12.41;88.50;101992.09;4989458;28;20045;-59
2022/10/19 09:06:43;;;;;;;9.20;1.65;;;;;;;12.42;88.75;101996.44;4984618;28;20112;-61
2022/10/19 09:09:14;;;;;;;4.45;1.15;;;;;;;12.46;88.45;102005.09;4974255;28;20049;-61
2022/10/19 09:11:44;;;;;;;9.93;1.17;;;;;;;12.54;88.41;102002.13;5008205;28;20129;-62
2022/10/19 09:14:20;;;;;;;10.07;1.55;;;;;;;12.57;88.08;102002.84;4992210;28;20050;-61
2022/10/19 09:16:47;;;;;;;8.88;1.83;;;;;;;12.57;86.45;102010.78;5001531;28;20429;-60
2022/10/19 09:19:24;;;;;;;7.40;1.67;;;;;;;12.68;86.68;102008.50;5012507;28;20064;-60
2022/10/19 09:22:02;;;;;;;7.45;2.15;;;;;;;12.80;84.85;102015.00;5010893;28;20049;-60
2022/10/19 09:24:54;;;;;;;6.93;1.70;;;;;;;12.73;85.15;102010.91;4996591;28;20164;-60
2022/10/19 09:27:24;;;;;;;5.22;1.00;;;;;;;12.67;84.33;102006.78;4997399;28;20087;-60
2022/10/19 09:29:56;;;;;;;6.35;1.35;;;;;;;12.75;84.72;102011.72;5007520;28;20062;-58
2022/10/19 09:32:27;;;;;;;6.07;1.55;;;;;;;12.83;84.60;102024.56;4991092;28;20061;-60
2022/10/19 09:34:57;;;;;;;6.85;1.23;;;;;;;12.79;83.41;102026.50;4987018;28;20060;-61
2022/10/19 09:37:24;;;;;;;3.13;1.00;;;;;;;12.74;82.06;102024.97;4993522;28;20471;-60
2022/10/19 09:39:53;;;;;;;8.00;1.40;;;;;;;12.78;82.01;102021.28;5008508;28;20398;-65
2022/10/19 09:42:24;;;;;;;4.28;1.20;;;;;;;12.83;78.77;102021.91;5007863;28;20057;-60
2022/10/19 09:44:53;;;;;;;3.65;1.23;;;;;;;12.76;79.63;102031.06;4984919;28;20058;-60
2022/10/19 09:47:29;;;;;;;5.45;1.10;;;;;;;12.76;80.94;102025.78;5008968;28;20096;-60
2022/10/19 09:50:17;;;;;;;6.22;1.10;;;;;;;12.78;80.06;102029.19;5006515;28;20069;-59
2022/10/19 09:52:46;;;;;;;7.10;1.60;;;;;;;12.85;80.35;102028.00;5005954;28;20128;-60
2022/10/19 09:55:13;;;;;;;5.55;1.05;;;;;;;12.93;78.77;102032.00;5006615;28;20068;-61
2022/10/19 09:57:41;;;;;;;6.65;0.90;;;;;;;12.96;76.51;102036.28;5006763;28;20057;-60
2022/10/19 10:00:20;;;;;;;4.40;0.90;;;;;;;13.04;77.89;102034.16;5005653;28;20111;-60
2022/10/19 10:02:52;;;;;;;4.55;1.25;;;;;;;13.17;79.52;102037.06;5006870;28;20143;-61
2022/10/19 10:05:19;;;;;;;8.02;1.65;;;;;;;13.22;78.05;102043.03;5007538;28;20332;-60
2022/10/19 10:07:46;;;;;;;6.82;1.20;;;;;;;13.26;77.21;102046.41;4987705;28;20054;-60
2022/10/19 10:10:27;;;;;;;5.82;1.20;;;;;;;13.29;77.39;102039.19;4983513;28;20092;-61
2022/10/19 10:12:58;;;;;;;6.03;0.82;;;;;;;13.35;75.26;102044.16;4973464;28;20132;-62
2022/10/19 10:15:27;;;;;;;7.90;1.20;;;;;;;13.33;72.04;102042.53;4988700;28;20073;-63
2022/10/19 10:17:56;;;;;;;6.38;1.33;;;;;;;13.33;71.96;102039.91;4988460;28;20060;-62
2022/10/19 10:20:27;;;;;;;9.55;1.25;;;;;;;13.38;71.31;102029.94;4990331;28;20129;-62
2022/10/19 10:23:00;;;;;;;6.32;1.13;;;;;;;13.50;71.06;102025.84;5006771;28;20090;-60
2022/10/19 10:25:29;;;;;;;6.45;0.90;;;;;;;13.60;70.52;102033.25;5003290;28;20058;-62
2022/10/19 10:28:00;;;;;;;4.05;0.80;;;;;;;13.68;68.76;102040.81;5006192;28;20551;-62
2022/10/19 10:30:33;;;;;;;2.08;0.63;;;;;;;13.83;67.09;102037.41;5007163;28;20053;-61
2022/10/19 10:33:00;;;;;;;3.50;1.02;;;;;;;13.90;67.15;102035.31;5006333;28;20056;-60
2022/10/19 10:35:52;;;;;;;2.90;0.75;;;;;;;14.07;67.58;102030.00;4999982;28;20536;-61
2022/10/19 10:38:24;;;;;;;2.13;0.85;;;;;;;14.19;63.61;102039.13;5007630;28;20137;-63
2022/10/19 10:40:53;;;;;;;3.72;0.77;;;;;;;14.29;64.39;102047.44;4987889;28;20145;-62
2022/10/19 10:43:28;;;;;;;3.80;0.60;;;;;;;14.39;65.01;102044.22;4988069;28;20058;-61
2022/10/19 10:46:00;;;;;;;6.22;0.52;;;;;;;14.37;62.41;102045.28;5005475;28;20081;-62
2022/10/19 10:48:39;;;;;;;2.63;1.02;;;;;;;14.40;62.99;102040.63;4987790;28;20045;-62
2022/10/19 10:51:17;;;;;;;1.77;0.57;;;;;;;14.51;60.15;102040.13;4988643;28;20686;-60
2022/10/19 10:53:44;;;;;;;2.17;0.98;;;;;;;14.46;61.20;102042.13;4986315;28;20569;-61
2022/10/19 10:56:39;;;;;;;8.93;1.73;;;;;;;14.29;59.70;102037.72;5009057;28;20525;-60
2022/10/19 10:59:18;;;;;;;2.67;0.98;;;;;;;14.39;59.45;102036.28;5004429;28;20057;-60
2022/10/19 11:02:13;;;;;;;9.75;0.73;;;;;;;14.54;57.94;102042.59;4993460;28;20046;-57
2022/10/19 11:04:48;;;;;;;4.15;0.88;;;;;;;14.75;58.03;102037.94;4989782;28;20050;-59
2022/10/19 11:07:24;;;;;;;3.63;1.02;;;;;;;15.02;59.08;102040.03;4994762;28;20057;-61
2022/10/19 11:10:08;;;;;;;6.15;1.63;;;;;;;15.33;56.56;102034.75;5009765;28;20081;-59
2022/10/19 11:12:44;;;;;;;1.98;0.60;;;;;;;15.52;57.92;102028.38;4994246;28;20050;-60
2022/10/19 11:15:51;;;;;;;4.47;0.63;;;;;;;15.57;58.38;102035.13;5005611;28;20046;-59
2022/10/19 11:18:24;;;;;;;2.58;0.60;;;;;;;15.84;56.04;102032.69;5008741;28;20105;-60
2022/10/19 11:21:08;;;;;;;3.25;1.20;;;;;;;15.68;54.32;102031.91;5009416;28;20594;-61
2022/10/19 11:23:47;;;;;;;3.92;1.25;;;;;;;15.41;56.48;102031.66;4992305;28;20077;-61
2022/10/19 11:26:29;;;;;;;1.52;0.70;;;;;;;15.44;57.11;102036.78;4993834;28;20058;-62
2022/10/19 11:29:07;;;;;;;7.97;1.30;;;;;;;15.43;55.84;102033.25;4972052;28;20050;-61
2022/10/19 11:31:49;;;;;;;3.88;0.77;;;;;;;15.55;56.73;102039.69;5010921;28;20132;-60
2022/10/19 11:34:28;;;;;;;4.65;0.93;;;;;;;15.51;55.01;102032.00;5010305;28;20057;-60
2022/10/19 11:37:12;;;;;;;3.75;0.63;;;;;;;15.13;54.61;102019.06;5006206;28;20049;-60
2022/10/19 11:40:13;;;;;;;1.77;0.57;;;;;;;15.07;57.82;102025.59;5007692;28;20104;-60
2022/10/19 11:42:56;;;;;;;7.30;0.93;;;;;;;15.13;56.80;102019.94;4988664;28;20506;-60
2022/10/19 11:45:36;;;;;;;4.07;0.80;;;;;;;14.97;55.94;102026.19;4985410;28;20441;-60
2022/10/19 11:48:29;;;;;;;2.03;0.90;;;;;;;14.77;56.45;102017.53;5009679;28;20083;-61